Premont, Texas
Current Conditions -  °F | °C
As of 8:09 AM on Monday 22 Dec 2014 (Local Time) from KNQI Reporting Station
Haze Haze  
Wind Chill: 60°   Ceiling: 200
Heat Index: 60°   Visibility: 2mi
Dew Point: 60°   Wind: 15mph
Humidity: 100%   Direction: 210°SSW
Pressure: 29.79"   Gusts: 22mph
Location:  27.36°N, 98.12°W
Report Text: KNQI 221409Z 21013G19KT 2SM BR OVC002 16/16 A2979 RMK AO2 T01560156 $
Loading
Personal Weather Stations






























Interactive Weather Map New forecast layout! Learn more

10-Day Weather Forecast

Advertisements
Track Severe Weather on mobile